Time;durP1;ratioP1;P1;durP2;ratioP2;P2;SDS_P1;SDS_P2;PMS_P1;PMS_P2;Temp;Humidity;BMP_temperature;BMP_pressure;BME280_temperature;BME280_humidity;BME280_pressure;Samples;Min_cycle;Max_cycle;Signal;HPM_P1;HPM_P2
2022/01/25 00:15:36;;;;;;;60.42;25.35;;;4.00;99.90;;;;;;4952457;29;20521;-79
2022/01/25 00:26:23;;;;;;;63.25;26.33;;;3.90;99.90;;;;;;4952566;29;20402;-79
2022/01/25 00:29:02;;;;;;;62.42;26.05;;;3.90;99.90;;;;;;4952815;29;20065;-80
2022/01/25 00:31:28;;;;;;;58.13;24.45;;;3.90;99.90;;;;;;4952621;29;20533;-80
2022/01/25 00:33:54;;;;;;;70.15;27.83;;;3.90;99.90;;;;;;4952632;29;20139;-79
2022/01/25 00:36:24;;;;;;;62.53;26.30;;;3.90;99.90;;;;;;4952161;29;20174;-79
2022/01/25 00:38:51;;;;;;;68.20;28.50;;;4.00;99.90;;;;;;4952394;29;20043;-79
2022/01/25 00:41:18;;;;;;;68.00;28.05;;;4.00;99.90;;;;;;4954257;28;20043;-78
2022/01/25 00:43:45;;;;;;;64.97;26.65;;;3.90;99.90;;;;;;4952949;29;20051;-78
2022/01/25 00:46:12;;;;;;;67.10;26.55;;;3.90;99.90;;;;;;4952702;29;20047;-78
2022/01/25 00:56:20;;;;;;;71.22;28.15;;;3.90;99.90;;;;;;4953266;29;20048;-78
2022/01/25 00:58:45;;;;;;;66.40;27.98;;;3.90;99.90;;;;;;4953740;29;20039;-78
2022/01/25 01:01:11;;;;;;;66.80;29.15;;;3.90;99.90;;;;;;4953740;29;20062;-78
2022/01/25 01:03:37;;;;;;;66.18;27.05;;;3.90;99.90;;;;;;4938346;29;20055;-78
2022/01/25 01:06:04;;;;;;;66.03;26.73;;;3.90;99.90;;;;;;4937331;29;20051;-78
2022/01/25 01:08:30;;;;;;;64.63;27.02;;;3.90;99.90;;;;;;4955144;28;20047;-78
2022/01/25 01:10:58;;;;;;;63.90;27.40;;;3.90;99.90;;;;;;4953394;29;20051;-78
2022/01/25 01:13:49;;;;;;;66.45;26.05;;;3.90;99.90;;;;;;4954341;28;20053;-78
2022/01/25 01:29:57;;;;;;;68.65;28.27;;;3.90;99.90;;;;;;4959109;29;20058;-78
2022/01/25 01:38:16;;;;;;;66.07;26.17;;;4.00;99.90;;;;;;4959126;29;20457;-78
2022/01/25 01:50:57;;;;;;;73.60;27.88;;;3.90;99.90;;;;;;4958641;29;20486;-78
2022/01/25 01:53:23;;;;;;;65.00;26.83;;;3.90;99.90;;;;;;4958896;29;20074;-78
2022/01/25 01:55:49;;;;;;;67.45;26.52;;;3.90;99.90;;;;;;4958498;29;20054;-78
2022/01/25 01:58:15;;;;;;;61.25;26.20;;;3.90;99.90;;;;;;4942378;29;20050;-78
2022/01/25 02:00:44;;;;;;;68.82;26.73;;;3.90;99.90;;;;;;4957835;29;20051;-78
2022/01/25 02:03:10;;;;;;;68.82;26.80;;;3.80;99.90;;;;;;4958021;29;20050;-78
2022/01/25 02:05:36;;;;;;;70.93;26.55;;;3.80;99.90;;;;;;4942138;29;20046;-78
2022/01/25 02:08:03;;;;;;;69.13;28.95;;;3.80;99.90;;;;;;4958772;28;20047;-78
2022/01/25 02:10:29;;;;;;;65.53;28.08;;;3.80;99.90;;;;;;4958984;29;20417;-78
2022/01/25 02:12:55;;;;;;;60.35;26.38;;;3.80;99.90;;;;;;4958804;29;20055;-78
2022/01/25 02:15:22;;;;;;;71.65;27.33;;;3.80;99.90;;;;;;4958213;29;20082;-78
2022/01/25 02:23:21;;;;;;;64.55;25.70;;;3.80;99.90;;;;;;4958405;29;20058;-78
2022/01/25 02:25:53;;;;;;;67.68;27.38;;;3.80;99.90;;;;;;4958419;28;20102;-78
2022/01/25 02:28:19;;;;;;;72.45;26.60;;;3.80;99.90;;;;;;4956464;29;20114;-78
2022/01/25 02:30:46;;;;;;;67.45;28.02;;;3.80;99.90;;;;;;4956693;29;20075;-78
2022/01/25 02:33:11;;;;;;;67.05;26.90;;;3.80;99.90;;;;;;4956037;28;20039;-78
2022/01/25 02:35:39;;;;;;;67.03;26.08;;;3.80;99.90;;;;;;4957342;29;20508;-78
2022/01/25 02:38:05;;;;;;;76.35;27.00;;;3.80;99.90;;;;;;4956655;28;20039;-78
2022/01/25 02:40:30;;;;;;;64.30;26.48;;;3.80;99.90;;;;;;4954985;29;20414;-78
2022/01/25 02:42:56;;;;;;;62.35;25.05;;;3.80;99.90;;;;;;4955534;29;20055;-78
2022/01/25 02:45:24;;;;;;;69.35;27.33;;;3.80;99.90;;;;;;4956270;28;20288;-78
2022/01/25 02:50:34;;;;;;;64.65;26.45;;;3.80;99.90;;;;;;4955167;29;20180;-78
2022/01/25 02:52:59;;;;;;;70.82;28.73;;;3.80;99.90;;;;;;4956192;29;20092;-78
2022/01/25 02:55:25;;;;;;;67.65;25.27;;;3.80;99.90;;;;;;4939497;29;20482;-78
2022/01/25 02:57:50;;;;;;;64.88;24.92;;;3.80;99.90;;;;;;4955511;29;20066;-78
2022/01/25 03:00:16;;;;;;;57.78;24.42;;;3.80;99.90;;;;;;4955981;29;20083;-78
2022/01/25 03:02:42;;;;;;;65.22;26.83;;;3.80;99.90;;;;;;4939670;29;20546;-78
2022/01/25 03:05:08;;;;;;;66.72;26.50;;;3.70;99.90;;;;;;4955848;29;20323;-78
2022/01/25 03:07:37;;;;;;;70.45;26.80;;;3.70;99.90;;;;;;4955889;29;20433;-78
2022/01/25 03:10:03;;;;;;;61.50;25.13;;;3.70;99.90;;;;;;4955270;29;20043;-78
2022/01/25 03:12:40;;;;;;;64.15;25.60;;;3.80;99.90;;;;;;4955469;29;20043;-78
2022/01/25 03:17:47;;;;;;;60.70;23.98;;;3.70;99.90;;;;;;4956351;28;20047;-78
2022/01/25 03:20:20;;;;;;;56.63;22.58;;;3.70;99.90;;;;;;4956566;28;20046;-78
2022/01/25 03:22:58;;;;;;;62.90;25.58;;;3.70;99.90;;;;;;4956188;28;20110;-78
2022/01/25 03:25:25;;;;;;;65.30;24.92;;;3.80;99.90;;;;;;4954751;29;20076;-78
2022/01/25 03:27:51;;;;;;;60.65;25.05;;;3.80;99.90;;;;;;4954446;29;20058;-78
2022/01/25 03:30:17;;;;;;;58.80;22.67;;;3.80;99.90;;;;;;4938523;29;20454;-78
2022/01/25 03:32:43;;;;;;;60.15;25.02;;;3.80;99.90;;;;;;4955447;28;20119;-78
2022/01/25 03:35:09;;;;;;;67.57;25.98;;;3.80;99.90;;;;;;4958931;29;20458;-81
2022/01/25 03:37:34;;;;;;;58.72;23.67;;;3.80;99.90;;;;;;4958435;29;20076;-81
2022/01/25 03:40:00;;;;;;;70.15;26.83;;;3.80;99.90;;;;;;4959271;28;20043;-81
2022/01/25 03:42:26;;;;;;;65.30;25.10;;;3.80;99.90;;;;;;4957960;29;20071;-81
2022/01/25 03:44:51;;;;;;;66.57;25.65;;;3.80;99.90;;;;;;4957977;28;20103;-81
2022/01/25 03:47:21;;;;;;;56.05;24.83;;;3.80;99.90;;;;;;4957259;29;20420;-81
2022/01/25 03:49:49;;;;;;;65.22;25.10;;;3.80;99.90;;;;;;4957645;29;20051;-81
2022/01/25 03:52:18;;;;;;;65.97;25.40;;;3.80;99.90;;;;;;4957319;29;20051;-81
2022/01/25 03:54:44;;;;;;;65.15;24.77;;;3.80;99.90;;;;;;4957856;29;20035;-81
2022/01/25 03:57:10;;;;;;;66.50;25.27;;;3.70;99.90;;;;;;4956747;29;20093;-81
2022/01/25 03:59:35;;;;;;;68.65;26.17;;;3.70;99.90;;;;;;4956678;29;20205;-81
2022/01/25 04:02:01;;;;;;;59.30;24.90;;;3.80;99.90;;;;;;4957105;29;20580;-81
2022/01/25 04:04:29;;;;;;;59.83;24.27;;;3.80;99.90;;;;;;4957757;29;20031;-81
2022/01/25 04:06:54;;;;;;;58.97;24.42;;;3.80;99.90;;;;;;4957565;29;20405;-81
2022/01/25 04:09:21;;;;;;;62.15;24.17;;;3.80;99.90;;;;;;4958040;29;20090;-81
2022/01/25 04:11:47;;;;;;;62.65;25.17;;;3.80;99.90;;;;;;4941382;29;20050;-81
2022/01/25 04:14:12;;;;;;;56.13;24.25;;;3.80;99.90;;;;;;4957588;29;20040;-81
2022/01/25 04:16:49;;;;;;;63.45;25.25;;;3.80;99.90;;;;;;4957776;29;20046;-81
2022/01/25 04:19:31;;;;;;;65.97;26.05;;;3.80;99.90;;;;;;4954213;29;20047;-78
2022/01/25 04:27:10;;;;;;;;;;;3.80;99.90;;;;;;4955883;28;20058;-78
2022/01/25 04:29:36;;;;;;;71.40;26.15;;;3.80;99.90;;;;;;4954965;29;19919;-78
2022/01/25 04:32:01;;;;;;;62.65;24.70;;;3.70;99.90;;;;;;4955057;29;20103;-78
2022/01/25 04:50:57;;;;;;;61.92;23.83;;;3.70;99.90;;;;;;4955763;28;20074;-78
2022/01/25 04:53:35;;;;;;;63.70;24.42;;;3.70;99.90;;;;;;4954617;29;20043;-78
2022/01/25 04:56:10;;;;;;;70.45;24.88;;;3.70;99.90;;;;;;4954199;28;20069;-78
2022/01/25 04:58:47;;;;;;;62.25;24.35;;;3.70;99.90;;;;;;4957636;29;20043;-78
2022/01/25 05:01:12;;;;;;;65.57;25.48;;;3.70;99.90;;;;;;4958679;29;20051;-78
2022/01/25 05:03:54;;;;;;;71.43;26.40;;;3.70;99.90;;;;;;4959539;28;20047;-78
2022/01/25 05:06:20;;;;;;;73.43;27.17;;;3.70;99.90;;;;;;4957831;29;20052;-78
2022/01/25 05:08:52;;;;;;;63.45;24.63;;;3.70;99.90;;;;;;4958477;28;20058;-78
2022/01/25 05:11:27;;;;;;;69.40;25.27;;;3.70;99.90;;;;;;4972932;28;20470;-78
2022/01/25 05:14:33;;;;;;;69.13;25.83;;;3.70;99.90;;;;;;4958346;28;20405;-78
2022/01/25 05:16:56;;;;;;;63.95;24.92;;;3.70;99.90;;;;;;4957327;28;20054;-78
2022/01/25 05:22:03;;;;;;;63.45;24.38;;;3.70;99.90;;;;;;4956864;29;20124;-78
2022/01/25 05:22:25;;;;;;;61.95;23.40;;;3.70;99.90;;;;;;4955363;29;20521;-78
2022/01/25 05:24:52;;;;;;;58.90;23.25;;;3.80;99.90;;;;;;4956724;28;20047;-77
2022/01/25 05:27:20;;;;;;;65.22;25.33;;;3.70;99.90;;;;;;4955192;29;20053;-77
2022/01/25 05:29:46;;;;;;;63.15;24.63;;;3.70;99.90;;;;;;4955329;29;20184;-78
2022/01/25 05:32:12;;;;;;;65.40;24.70;;;3.70;99.90;;;;;;4955215;29;20130;-79
2022/01/25 05:34:38;;;;;;;61.17;24.50;;;3.70;99.90;;;;;;4955299;29;20039;-78
2022/01/25 05:37:06;;;;;;;66.53;26.38;;;3.70;99.90;;;;;;4939101;29;20047;-80
2022/01/25 05:39:33;;;;;;;63.50;24.85;;;3.70;99.90;;;;;;4955609;29;20230;-79
2022/01/25 05:42:20;;;;;;;62.30;23.25;;;3.70;99.90;;;;;;4955157;29;20532;-79
2022/01/25 05:47:19;;;;;;;67.75;24.65;;;3.80;99.90;;;;;;4958170;29;20047;-82
2022/01/25 05:49:45;;;;;;;67.40;25.30;;;3.80;99.90;;;;;;4959437;29;20576;-81
2022/01/25 05:52:11;;;;;;;62.03;25.13;;;3.80;99.90;;;;;;4961690;28;20043;-81
2022/01/25 05:54:38;;;;;;;62.47;25.95;;;3.80;99.90;;;;;;4961783;29;20413;-81
2022/01/25 05:57:04;;;;;;;59.97;22.17;;;3.80;99.90;;;;;;4946721;29;20043;-81
2022/01/25 05:59:30;;;;;;;69.18;24.92;;;3.70;99.90;;;;;;4963915;29;20042;-81
2022/01/25 06:01:55;;;;;;;64.47;26.58;;;3.70;99.90;;;;;;4961470;29;20490;-81
2022/01/25 06:04:22;;;;;;;56.63;22.50;;;3.70;99.90;;;;;;4958572;29;20042;-81
2022/01/25 06:06:48;;;;;;;64.15;22.80;;;3.70;99.90;;;;;;4958232;28;20081;-81
2022/01/25 06:09:13;;;;;;;66.10;24.88;;;3.70;99.90;;;;;;4940933;29;20171;-81
2022/01/25 06:11:39;;;;;;;65.22;25.17;;;3.70;99.90;;;;;;4941763;29;20039;-81
2022/01/25 06:14:05;;;;;;;140.35;62.65;;;3.70;99.90;;;;;;4943753;29;20046;-81
2022/01/25 06:16:30;;;;;;;67.28;26.27;;;3.70;99.90;;;;;;4942133;29;20522;-80
2022/01/25 06:18:57;;;;;;;68.50;26.58;;;3.70;99.90;;;;;;4958389;29;20047;-80
2022/01/25 06:21:22;;;;;;;67.75;23.67;;;3.70;99.90;;;;;;4943832;29;20097;-80
2022/01/25 06:23:49;;;;;;;66.82;25.95;;;3.70;99.90;;;;;;4964274;29;20059;-81
2022/01/25 06:26:14;;;;;;;59.40;23.73;;;3.70;99.90;;;;;;4962793;29;20059;-81
2022/01/25 06:28:40;;;;;;;66.20;22.88;;;3.70;99.90;;;;;;4961622;29;20055;-81
2022/01/25 06:31:07;;;;;;;68.00;25.80;;;3.70;99.90;;;;;;4959426;29;20075;-81
2022/01/25 06:33:33;;;;;;;72.75;27.05;;;3.70;99.90;;;;;;4960774;29;20043;-81
2022/01/25 06:35:58;;;;;;;70.95;26.80;;;3.70;99.90;;;;;;4941446;29;20522;-80
2022/01/25 06:38:26;;;;;;;72.70;25.67;;;3.80;99.90;;;;;;4958511;29;20082;-82
2022/01/25 06:40:52;;;;;;;65.53;23.83;;;3.70;99.90;;;;;;4955724;29;20046;-82
2022/01/25 06:43:17;;;;;;;63.88;23.85;;;3.80;99.90;;;;;;4956309;29;20039;-80
2022/01/25 06:45:45;;;;;;;58.53;23.77;;;3.70;99.90;;;;;;4939790;29;20039;-81
2022/01/25 06:48:11;;;;;;;61.20;23.52;;;3.70;99.90;;;;;;4956117;29;20122;-81
2022/01/25 06:50:37;;;;;;;66.47;24.17;;;3.70;99.90;;;;;;4954767;29;20130;-81
2022/01/25 06:53:02;;;;;;;70.80;25.60;;;3.70;99.90;;;;;;4938766;29;20049;-81
2022/01/25 06:55:28;;;;;;;67.00;25.80;;;3.70;99.90;;;;;;4954618;29;20051;-81
2022/01/25 06:57:54;;;;;;;68.68;24.33;;;3.70;99.90;;;;;;4954735;29;20039;-81
2022/01/25 07:00:22;;;;;;;69.90;25.60;;;3.80;99.90;;;;;;4955072;29;20047;-81
2022/01/25 07:02:48;;;;;;;71.65;25.52;;;3.70;99.90;;;;;;4955336;29;20051;-81
2022/01/25 07:05:14;;;;;;;71.45;24.20;;;3.80;99.90;;;;;;4954841;29;20159;-81
2022/01/25 07:07:41;;;;;;;64.60;24.00;;;3.70;99.90;;;;;;4954735;29;20039;-81
2022/01/25 07:10:08;;;;;;;59.95;23.23;;;3.70;99.90;;;;;;4954700;29;20481;-81
2022/01/25 07:12:34;;;;;;;57.47;23.08;;;3.70;99.90;;;;;;4953715;29;20506;-78
2022/01/25 07:15:00;;;;;;;60.80;23.23;;;3.70;99.90;;;;;;4954531;29;20051;-78
2022/01/25 07:17:26;;;;;;;58.08;23.73;;;3.70;99.90;;;;;;4953379;29;20046;-78
2022/01/25 07:19:51;;;;;;;60.97;23.80;;;3.70;99.90;;;;;;4954089;28;20045;-78
2022/01/25 07:22:17;;;;;;;70.60;25.38;;;3.70;99.90;;;;;;4953337;29;20417;-78
2022/01/25 07:24:43;;;;;;;73.32;26.30;;;3.60;99.90;;;;;;4953195;29;20094;-78
2022/01/25 07:27:09;;;;;;;63.33;24.55;;;3.70;99.90;;;;;;4952969;29;20043;-78
2022/01/25 07:29:34;;;;;;;69.53;24.50;;;3.70;99.90;;;;;;4953460;29;20071;-78
2022/01/25 07:32:00;;;;;;;71.00;25.77;;;3.70;99.90;;;;;;4953204;29;20739;-78
2022/01/25 07:34:26;;;;;;;67.00;25.30;;;3.70;99.90;;;;;;4953185;29;20486;-78
2022/01/25 07:36:52;;;;;;;72.47;26.42;;;3.70;99.90;;;;;;4952831;29;20031;-78
2022/01/25 07:39:18;;;;;;;74.68;26.77;;;3.70;99.90;;;;;;4953158;29;20106;-78
2022/01/25 07:41:45;;;;;;;62.47;23.55;;;3.70;99.90;;;;;;4952991;29;20051;-78
2022/01/25 07:44:11;;;;;;;67.55;25.83;;;3.70;99.90;;;;;;4937082;29;20090;-78
2022/01/25 07:46:36;;;;;;;64.95;24.52;;;3.80;99.90;;;;;;4952890;29;20051;-78
2022/01/25 07:49:03;;;;;;;81.95;25.17;;;3.70;99.90;;;;;;4952838;29;20124;-78
2022/01/25 07:51:29;;;;;;;68.38;25.85;;;3.70;99.90;;;;;;4954277;29;20047;-78
2022/01/25 07:53:56;;;;;;;73.05;25.00;;;3.80;99.90;;;;;;4954269;29;20436;-78
2022/01/25 07:56:22;;;;;;;59.30;23.67;;;3.70;99.90;;;;;;4954837;29;20047;-78
2022/01/25 07:58:48;;;;;;;69.28;25.35;;;3.70;99.90;;;;;;4954912;29;20054;-78
2022/01/25 08:01:15;;;;;;;65.55;24.42;;;3.70;99.90;;;;;;4954948;29;20053;-78
2022/01/25 08:03:43;;;;;;;59.67;23.27;;;3.70;99.90;;;;;;4938839;29;20126;-78
2022/01/25 08:06:09;;;;;;;65.75;24.00;;;3.60;99.90;;;;;;4954543;29;20057;-78
2022/01/25 08:08:36;;;;;;;70.90;25.27;;;3.60;99.90;;;;;;4953816;29;20490;-78
2022/01/25 08:11:01;;;;;;;66.97;26.33;;;3.60;99.90;;;;;;4953435;29;20058;-78
2022/01/25 08:13:27;;;;;;;65.57;24.52;;;3.60;99.90;;;;;;4954299;29;20051;-78
2022/01/25 08:15:52;;;;;;;72.28;25.25;;;3.60;99.90;;;;;;4954652;29;20043;-79
2022/01/25 08:18:18;;;;;;;67.47;25.23;;;3.70;99.90;;;;;;4954560;29;20046;-79
2022/01/25 08:20:43;;;;;;;62.65;24.45;;;3.70;99.90;;;;;;4954635;29;20414;-79
2022/01/25 08:23:09;;;;;;;65.70;25.05;;;3.70;99.90;;;;;;4955069;28;20387;-79
2022/01/25 08:25:34;;;;;;;64.00;25.00;;;3.70;99.90;;;;;;4954006;29;20495;-79
2022/01/25 08:28:01;;;;;;;72.18;25.02;;;3.70;99.90;;;;;;4937565;29;20113;-78
2022/01/25 08:30:26;;;;;;;57.45;23.08;;;3.70;99.90;;;;;;4955373;28;20047;-78
2022/01/25 08:32:52;;;;;;;66.03;23.58;;;3.70;99.90;;;;;;4957866;29;20046;-79
2022/01/25 08:35:18;;;;;;;72.55;25.80;;;3.70;99.90;;;;;;4958430;29;20049;-79
2022/01/25 08:37:44;;;;;;;66.65;25.17;;;3.70;99.90;;;;;;4957425;29;20054;-79
2022/01/25 08:40:11;;;;;;;65.13;25.10;;;3.70;99.90;;;;;;4956650;29;20055;-78
2022/01/25 08:42:36;;;;;;;65.00;25.27;;;3.80;99.90;;;;;;4956236;29;20049;-77
2022/01/25 08:45:06;;;;;;;68.57;26.35;;;3.80;99.90;;;;;;4955977;29;20422;-78
2022/01/25 08:47:31;;;;;;;58.72;21.90;;;3.80;99.90;;;;;;4940014;29;20043;-77
2022/01/25 08:49:57;;;;;;;70.93;24.67;;;3.70;99.90;;;;;;4956062;29;20091;-78
2022/01/25 08:52:23;;;;;;;65.93;25.48;;;3.70;99.90;;;;;;4955915;29;20047;-78
2022/01/25 08:54:49;;;;;;;72.55;25.13;;;3.70;99.90;;;;;;4957768;28;20039;-78
2022/01/25 08:57:15;;;;;;;68.55;24.27;;;3.70;99.90;;;;;;4940813;29;20446;-79
2022/01/25 08:59:41;;;;;;;66.00;23.80;;;3.80;99.90;;;;;;4956476;29;20446;-79
2022/01/25 09:02:06;;;;;;;61.83;24.55;;;3.80;99.90;;;;;;4957794;28;20047;-79
2022/01/25 09:04:32;;;;;;;70.90;23.20;;;3.80;99.90;;;;;;4940387;29;20486;-78
2022/01/25 09:06:57;;;;;;;63.45;24.05;;;3.80;99.90;;;;;;4956552;29;20256;-78
2022/01/25 09:09:23;;;;;;;61.45;23.33;;;3.90;99.90;;;;;;4956885;29;20457;-78
2022/01/25 09:11:49;;;;;;;61.80;23.77;;;3.80;99.90;;;;;;4958200;28;20039;-78
2022/01/25 09:14:15;;;;;;;59.05;22.75;;;3.80;99.90;;;;;;4956208;29;20049;-78
2022/01/25 09:16:41;;;;;;;62.70;23.35;;;3.80;99.90;;;;;;4956336;29;20425;-78
2022/01/25 09:19:07;;;;;;;66.97;24.35;;;3.80;99.90;;;;;;4956357;29;20054;-78
2022/01/25 09:21:33;;;;;;;64.43;24.10;;;3.80;99.90;;;;;;4956172;29;20474;-78
2022/01/25 09:23:59;;;;;;;67.82;24.08;;;3.80;99.90;;;;;;4956572;29;20051;-78
2022/01/25 09:26:25;;;;;;;62.65;24.50;;;3.80;99.90;;;;;;4957658;28;20039;-78
2022/01/25 09:28:54;;;;;;;59.30;22.88;;;3.90;99.90;;;;;;4957205;29;20528;-78
2022/01/25 09:31:20;;;;;;;61.30;21.98;;;3.80;99.90;;;;;;4956884;29;20106;-79
2022/01/25 09:33:46;;;;;;;65.43;24.90;;;3.80;99.90;;;;;;4957521;28;20054;-79
2022/01/25 09:36:11;;;;;;;68.13;24.25;;;3.90;99.90;;;;;;4956012;29;20130;-79
2022/01/25 09:38:37;;;;;;;66.15;24.27;;;3.80;99.90;;;;;;4956571;29;20335;-79
2022/01/25 09:41:03;;;;;;;66.40;24.17;;;3.80;99.90;;;;;;4956394;28;20054;-79
2022/01/25 09:43:30;;;;;;;60.78;23.17;;;3.80;99.90;;;;;;4955655;29;20051;-79
2022/01/25 09:45:56;;;;;;;65.45;24.95;;;3.80;99.90;;;;;;4958455;28;20050;-79
2022/01/25 09:48:21;;;;;;;62.35;24.55;;;3.90;99.90;;;;;;4957227;29;20039;-80
2022/01/25 09:50:47;;;;;;;61.97;24.00;;;3.90;99.90;;;;;;4955280;29;20047;-80
2022/01/25 09:53:13;;;;;;;63.30;23.75;;;3.90;99.90;;;;;;4955621;29;20050;-80
2022/01/25 09:55:41;;;;;;;64.70;23.42;;;3.90;99.90;;;;;;4954900;29;20175;-80
2022/01/25 09:58:08;;;;;;;64.97;23.50;;;3.90;99.90;;;;;;4955218;29;20047;-81
2022/01/25 10:00:35;;;;;;;68.85;25.10;;;3.90;99.90;;;;;;4955339;29;20517;-80
2022/01/25 10:05:41;;;;;;;86.45;29.20;;;4.00;99.90;;;;;;4955154;29;20059;-80
2022/01/25 10:08:10;;;;;;;96.30;25.77;;;4.00;99.90;;;;;;4955521;29;20054;-80
2022/01/25 10:10:39;;;;;;;63.60;24.38;;;4.00;99.90;;;;;;4955398;29;20047;-80
2022/01/25 10:13:21;;;;;;;64.30;25.00;;;4.10;99.90;;;;;;4955164;29;20048;-80
2022/01/25 10:16:03;;;;;;;68.50;23.80;;;4.10;99.90;;;;;;4959527;29;20536;-81
2022/01/25 10:18:41;;;;;;;67.80;23.80;;;4.00;99.90;;;;;;4959035;29;20039;-81
2022/01/25 10:21:25;;;;;;;59.75;23.52;;;4.10;99.90;;;;;;4956743;29;20054;-79
2022/01/25 10:24:10;;;;;;;70.13;25.38;;;4.10;99.90;;;;;;4954408;29;20043;-78
2022/01/25 10:26:41;;;;;;;70.97;24.20;;;4.10;99.90;;;;;;4954206;29;20051;-78
2022/01/25 10:29:09;;;;;;;67.38;23.17;;;4.10;99.90;;;;;;4954534;29;20058;-78
2022/01/25 10:31:41;;;;;;;63.50;23.88;;;4.20;99.90;;;;;;4954332;29;20039;-78
2022/01/25 10:34:09;;;;;;;64.60;25.63;;;4.10;99.90;;;;;;4954310;29;20047;-78
2022/01/25 10:36:45;;;;;;;63.90;24.48;;;4.10;99.90;;;;;;4953922;29;20126;-78
2022/01/25 10:39:19;;;;;;;67.30;23.65;;;4.20;99.90;;;;;;4954146;29;20039;-78
2022/01/25 10:41:45;;;;;;;61.53;25.60;;;4.20;99.90;;;;;;4954308;29;20050;-78
2022/01/25 10:44:10;;;;;;;64.78;23.20;;;4.20;99.90;;;;;;4954062;29;20051;-78
2022/01/25 10:46:36;;;;;;;63.70;23.75;;;4.20;99.90;;;;;;4953738;29;20044;-78
2022/01/25 10:49:10;;;;;;;68.55;24.23;;;4.20;99.90;;;;;;4953866;29;20047;-78
2022/01/25 10:51:38;;;;;;;64.97;25.00;;;4.20;99.90;;;;;;4953972;29;20054;-78
2022/01/25 10:54:07;;;;;;;64.50;23.23;;;4.20;99.90;;;;;;4953365;28;20121;-78
2022/01/25 10:56:41;;;;;;;73.15;26.38;;;4.30;99.90;;;;;;4953565;29;20074;-78
2022/01/25 10:59:10;;;;;;;62.25;23.80;;;4.20;99.90;;;;;;4953579;29;20047;-78
2022/01/25 11:01:40;;;;;;;63.28;26.00;;;4.30;99.90;;;;;;4954978;28;20046;-78
2022/01/25 11:04:11;;;;;;;66.32;25.92;;;4.30;99.90;;;;;;4953904;29;20039;-78
2022/01/25 11:06:38;;;;;;;62.73;23.73;;;4.30;99.90;;;;;;4953488;29;20537;-78
2022/01/25 11:09:06;;;;;;;64.35;24.05;;;4.20;99.90;;;;;;4953499;29;20482;-78
2022/01/25 11:11:40;;;;;;;58.53;22.83;;;4.30;99.90;;;;;;4954702;28;20513;-78
2022/01/25 11:16:53;;;;;;;60.38;21.50;;;4.20;99.90;;;;;;4953256;29;20046;-78
2022/01/25 11:19:20;;;;;;;56.90;22.33;;;4.20;99.90;;;;;;4953571;29;20047;-79
2022/01/25 11:21:48;;;;;;;64.20;22.33;;;4.30;99.90;;;;;;4953377;29;20051;-78
2022/01/25 11:24:16;;;;;;;67.28;24.42;;;4.20;99.90;;;;;;4953273;29;20097;-78
2022/01/25 11:26:43;;;;;;;63.53;22.85;;;4.30;99.90;;;;;;4953323;29;20047;-78
2022/01/25 11:29:09;;;;;;;63.03;23.50;;;4.30;99.90;;;;;;4953413;29;20039;-78
2022/01/25 11:31:38;;;;;;;61.08;23.58;;;4.30;99.90;;;;;;4953114;29;20046;-79
2022/01/25 11:34:08;;;;;;;56.58;21.55;;;4.30;99.90;;;;;;4953406;29;20494;-78
2022/01/25 11:37:07;;;;;;;66.72;24.20;;;4.30;99.90;;;;;;4952864;29;20086;-78
2022/01/25 11:39:34;;;;;;;59.08;22.13;;;4.30;99.90;;;;;;4952593;29;20122;-79
2022/01/25 11:42:08;;;;;;;64.05;24.67;;;4.30;99.90;;;;;;4953069;29;20054;-78
2022/01/25 11:44:34;;;;;;;62.33;23.02;;;4.30;99.90;;;;;;4955335;29;20035;-81
2022/01/25 11:47:10;;;;;;;55.25;21.58;;;4.30;99.90;;;;;;4958522;29;20062;-81
2022/01/25 11:49:59;;;;;;;62.78;23.10;;;4.40;99.90;;;;;;4943091;29;20039;-81
2022/01/25 11:52:27;;;;;;;73.30;24.92;;;4.40;99.90;;;;;;4958912;29;20035;-81
2022/01/25 11:55:13;;;;;;;65.80;23.83;;;4.40;99.90;;;;;;4958753;29;20043;-80
2022/01/25 11:57:48;;;;;;;68.68;24.02;;;4.40;99.90;;;;;;4958853;29;20525;-81
2022/01/25 12:00:14;;;;;;;62.92;23.30;;;4.40;99.90;;;;;;4958307;29;20072;-81
2022/01/25 12:02:45;;;;;;;66.32;23.88;;;4.40;99.90;;;;;;4957926;29;20043;-81
2022/01/25 12:05:17;;;;;;;59.00;21.48;;;4.40;99.90;;;;;;4957269;28;20402;-81
2022/01/25 12:08:11;;;;;;;71.20;23.48;;;4.50;99.90;;;;;;4941084;29;20039;-81
2022/01/25 12:10:41;;;;;;;67.45;24.27;;;4.40;99.90;;;;;;4958292;29;20051;-81
2022/01/25 12:13:16;;;;;;;64.00;22.02;;;4.50;99.90;;;;;;4939302;29;20058;-81
2022/01/25 12:15:43;;;;;;;65.65;23.88;;;4.50;99.90;;;;;;4953921;29;20039;-81
2022/01/25 12:18:29;;;;;;;55.33;20.20;;;4.50;99.90;;;;;;4939852;29;20050;-81
2022/01/25 12:20:55;;;;;;;52.25;20.30;;;4.50;99.90;;;;;;4957848;29;20520;-81
2022/01/25 12:23:40;;;;;;;59.88;21.55;;;4.50;99.90;;;;;;4955970;29;20075;-81
2022/01/25 12:26:08;;;;;;;59.72;21.80;;;4.60;99.90;;;;;;4941732;29;20098;-81
2022/01/25 12:28:41;;;;;;;59.15;20.30;;;4.50;99.90;;;;;;4956532;28;20043;-81
2022/01/25 12:31:14;;;;;;;57.25;21.50;;;4.60;99.90;;;;;;4953828;29;20063;-81
2022/01/25 12:33:40;;;;;;;66.25;22.45;;;4.50;99.90;;;;;;4954068;29;20035;-81
2022/01/25 12:36:08;;;;;;;79.75;23.33;;;4.60;99.90;;;;;;4954191;29;20103;-81
2022/01/25 12:38:47;;;;;;;61.72;21.67;;;4.60;99.90;;;;;;4953681;29;20518;-81
2022/01/25 12:41:17;;;;;;;64.57;23.35;;;4.60;99.90;;;;;;4954497;29;20047;-81
2022/01/25 12:43:50;;;;;;;131.90;26.85;;;4.50;99.90;;;;;;4937425;29;20450;-81
2022/01/25 12:46:19;;;;;;;101.93;24.38;;;4.50;99.90;;;;;;4954965;28;20130;-79
2022/01/25 12:48:58;;;;;;;87.68;23.88;;;4.50;99.90;;;;;;4955860;28;20043;-79
2022/01/25 12:51:33;;;;;;;61.08;20.42;;;4.50;99.90;;;;;;4938582;29;20473;-79
2022/01/25 12:54:02;;;;;;;59.78;23.45;;;4.50;99.90;;;;;;4954125;29;20078;-79
2022/01/25 12:56:34;;;;;;;61.33;21.30;;;4.50;99.90;;;;;;4939439;29;20085;-79
2022/01/25 12:59:06;;;;;;;65.50;22.77;;;4.50;99.90;;;;;;4955284;29;20044;-79
2022/01/25 13:01:34;;;;;;;65.80;22.95;;;4.50;99.90;;;;;;4955083;29;20043;-79
2022/01/25 13:04:02;;;;;;;58.90;21.52;;;4.50;99.90;;;;;;4954482;29;20070;-79
2022/01/25 13:06:34;;;;;;;61.38;23.25;;;4.50;99.90;;;;;;4954710;29;20109;-79
2022/01/25 13:09:08;;;;;;;;;;;4.60;99.90;;;;;;4954968;29;20052;-79
2022/01/25 13:16:37;;;;;;;60.92;21.45;;;4.50;99.90;;;;;;4954878;28;19922;-79
2022/01/25 13:19:03;;;;;;;67.00;23.13;;;4.50;99.90;;;;;;4958515;29;20074;-80
2022/01/25 13:21:37;;;;;;;65.32;21.48;;;4.50;99.90;;;;;;4959532;29;20401;-80
2022/01/25 13:24:07;;;;;;;67.45;22.73;;;4.50;99.90;;;;;;4958884;28;20043;-80
2022/01/25 13:26:38;;;;;;;63.85;22.75;;;4.50;99.90;;;;;;4957662;29;20042;-80
2022/01/25 13:30:39;;;;;;;69.13;22.63;;;4.50;99.90;;;;;;4942653;29;20488;-81
2022/01/25 13:32:13;;;;;;;62.28;24.05;;;4.50;99.90;;;;;;4958604;28;20118;-81
2022/01/25 13:34:39;;;;;;;59.70;21.10;;;4.50;99.90;;;;;;4940839;29;20035;-81
2022/01/25 13:37:04;;;;;;;59.15;22.45;;;4.50;99.90;;;;;;4957795;29;20078;-81
2022/01/25 13:39:30;;;;;;;57.60;20.77;;;4.50;99.90;;;;;;4942499;29;20082;-81
2022/01/25 13:42:04;;;;;;;57.42;21.75;;;4.50;99.90;;;;;;4941561;29;20042;-81
2022/01/25 13:47:14;;;;;;;59.20;21.83;;;4.50;99.90;;;;;;4957663;29;20053;-81
2022/01/25 13:49:41;;;;;;;60.85;21.85;;;4.50;99.90;;;;;;4941122;29;20035;-81
2022/01/25 13:52:06;;;;;;;58.40;24.00;;;4.50;99.90;;;;;;4957743;29;20079;-81
2022/01/25 13:54:32;;;;;;;53.30;20.52;;;4.50;99.90;;;;;;4958003;29;20490;-81
2022/01/25 13:57:05;;;;;;;56.63;21.23;;;4.50;99.90;;;;;;4958296;29;20061;-81
2022/01/25 13:59:31;;;;;;;59.90;21.83;;;4.50;99.90;;;;;;4958558;29;20043;-81
2022/01/25 14:01:57;;;;;;;54.88;19.90;;;4.40;99.90;;;;;;4943708;29;20055;-81
2022/01/25 14:04:27;;;;;;;56.88;20.23;;;4.50;99.90;;;;;;4957492;29;20047;-81
2022/01/25 14:06:59;;;;;;;60.38;23.55;;;4.40;99.90;;;;;;4941130;29;20047;-81
2022/01/25 14:09:32;;;;;;;55.22;22.50;;;4.40;99.90;;;;;;4957669;29;20517;-81
2022/01/25 14:23:21;;;;;;;56.25;19.90;;;4.40;99.90;;;;;;4960327;29;20086;-81
2022/01/25 14:25:46;;;;;;;63.70;22.83;;;4.40;99.90;;;;;;4960539;28;20062;-81
2022/01/25 14:28:16;;;;;;;63.85;21.65;;;4.40;99.90;;;;;;4959657;28;20054;-81
2022/01/25 14:30:47;;;;;;;58.45;20.83;;;4.40;99.90;;;;;;4959588;29;20058;-81
2022/01/25 14:33:25;;;;;;;54.70;21.50;;;4.40;99.90;;;;;;4958693;29;20490;-81
2022/01/25 14:36:04;;;;;;;60.65;22.75;;;4.40;99.90;;;;;;4958670;29;20089;-81
2022/01/25 14:38:38;;;;;;;66.75;22.75;;;4.40;99.90;;;;;;4958560;29;20046;-81
2022/01/25 14:41:05;;;;;;;59.17;22.38;;;4.40;99.90;;;;;;4959484;29;20405;-81
2022/01/25 14:43:33;;;;;;;54.95;21.27;;;4.30;99.90;;;;;;4960975;29;20450;-81
2022/01/25 14:46:09;;;;;;;54.08;20.80;;;4.30;99.90;;;;;;4958195;29;20071;-81